sensor_id;sensor_type;location;lat;lon;timestamp;pressure;altitude;pressure_sealevel;temperature;humidity
76464;BME280;65301;46.666;20.110;2022-12-29T00:00:16;101621.94;;;0.75;76.93
76464;BME280;65301;46.666;20.110;2022-12-29T00:03:18;101623.13;;;0.79;77.28
76464;BME280;65301;46.666;20.110;2022-12-29T00:06:20;101620.22;;;0.87;76.56
76464;BME280;65301;46.666;20.110;2022-12-29T00:09:21;101630.03;;;0.85;76.61
76464;BME280;65301;46.666;20.110;2022-12-29T00:12:23;101632.22;;;0.88;77.15
76464;BME280;65301;46.666;20.110;2022-12-29T00:15:26;101622.53;;;0.77;76.92
76464;BME280;65301;46.666;20.110;2022-12-29T00:18:40;101618.91;;;0.78;76.75
76464;BME280;65301;46.666;20.110;2022-12-29T00:21:42;101625.97;;;0.71;76.99
76464;BME280;65301;46.666;20.110;2022-12-29T00:25:03;101631.91;;;0.78;77.27
76464;BME280;65301;46.666;20.110;2022-12-29T00:28:10;101624.91;;;0.79;76.60
76464;BME280;65301;46.666;20.110;2022-12-29T00:31:31;101629.16;;;0.73;76.53
76464;BME280;65301;46.666;20.110;2022-12-29T00:34:51;101619.63;;;0.67;77.10
76464;BME280;65301;46.666;20.110;2022-12-29T00:38:12;101615.19;;;0.67;76.88
76464;BME280;65301;46.666;20.110;2022-12-29T00:41:33;101628.34;;;0.73;77.25
76464;BME280;65301;46.666;20.110;2022-12-29T00:44:53;101620.34;;;0.74;77.36
76464;BME280;65301;46.666;20.110;2022-12-29T00:47:55;101629.16;;;0.73;77.30
76464;BME280;65301;46.666;20.110;2022-12-29T00:50:56;101613.69;;;0.60;77.50
76464;BME280;65301;46.666;20.110;2022-12-29T00:53:58;101626.97;;;0.70;77.12
76464;BME280;65301;46.666;20.110;2022-12-29T00:57:00;101631.81;;;0.66;76.71
76464;BME280;65301;46.666;20.110;2022-12-29T01:00:03;101624.66;;;0.62;77.27
76464;BME280;65301;46.666;20.110;2022-12-29T01:03:05;101629.78;;;0.68;76.75
76464;BME280;65301;46.666;20.110;2022-12-29T01:06:08;101628.91;;;0.56;77.77
76464;BME280;65301;46.666;20.110;2022-12-29T01:09:11;101628.31;;;0.54;77.38
76464;BME280;65301;46.666;20.110;2022-12-29T01:12:33;101634.25;;;0.61;77.27
76464;BME280;65301;46.666;20.110;2022-12-29T01:15:50;101628.09;;;0.56;77.60
76464;BME280;65301;46.666;20.110;2022-12-29T01:18:52;101626.53;;;0.48;77.97
76464;BME280;65301;46.666;20.110;2022-12-29T01:21:54;101617.59;;;0.44;78.22
76464;BME280;65301;46.666;20.110;2022-12-29T01:24:56;101611.34;;;0.52;77.72
76464;BME280;65301;46.666;20.110;2022-12-29T01:27:57;101619.88;;;0.59;77.50
76464;BME280;65301;46.666;20.110;2022-12-29T01:31:00;101608.75;;;0.52;77.37
76464;BME280;65301;46.666;20.110;2022-12-29T01:34:02;101605.72;;;0.55;77.64
76464;BME280;65301;46.666;20.110;2022-12-29T01:37:04;101602.84;;;0.63;77.34
76464;BME280;65301;46.666;20.110;2022-12-29T01:40:06;101598.09;;;0.60;76.84
76464;BME280;65301;46.666;20.110;2022-12-29T01:43:11;101590.94;;;0.55;76.81
76464;BME280;65301;46.666;20.110;2022-12-29T01:46:22;101594.88;;;0.58;76.37
76464;BME280;65301;46.666;20.110;2022-12-29T01:49:28;101600.44;;;0.37;77.79
76464;BME280;65301;46.666;20.110;2022-12-29T01:52:32;101595.41;;;0.17;77.71
76464;BME280;65301;46.666;20.110;2022-12-29T01:55:48;101592.09;;;0.04;78.51
76464;BME280;65301;46.666;20.110;2022-12-29T01:58:57;101597.47;;;0.09;78.67
76464;BME280;65301;46.666;20.110;2022-12-29T02:02:01;101594.81;;;0.15;78.31
76464;BME280;65301;46.666;20.110;2022-12-29T02:05:09;101597.16;;;0.23;78.33
76464;BME280;65301;46.666;20.110;2022-12-29T02:08:12;101589.44;;;0.17;78.86
76464;BME280;65301;46.666;20.110;2022-12-29T02:11:16;101581.19;;;0.20;78.33
76464;BME280;65301;46.666;20.110;2022-12-29T02:14:18;101580.13;;;0.27;77.91
76464;BME280;65301;46.666;20.110;2022-12-29T02:17:37;101573.94;;;0.28;78.30
76464;BME280;65301;46.666;20.110;2022-12-29T02:24:00;101564.66;;;0.39;78.00
76464;BME280;65301;46.666;20.110;2022-12-29T02:37:54;101568.91;;;0.33;77.72
76464;BME280;65301;46.666;20.110;2022-12-29T02:41:07;101557.94;;;0.31;78.23
76464;BME280;65301;46.666;20.110;2022-12-29T02:51:15;101550.50;;;0.35;77.46
76464;BME280;65301;46.666;20.110;2022-12-29T02:54:19;101549.69;;;0.34;77.59
76464;BME280;65301;46.666;20.110;2022-12-29T02:57:40;101559.47;;;0.39;77.25
76464;BME280;65301;46.666;20.110;2022-12-29T03:08:18;101559.91;;;0.36;78.29
76464;BME280;65301;46.666;20.110;2022-12-29T03:11:05;101564.66;;;0.39;77.53
76464;BME280;65301;46.666;20.110;2022-12-29T03:14:44;101552.69;;;0.38;77.73
76464;BME280;65301;46.666;20.110;2022-12-29T03:18:13;101562.34;;;0.31;78.41
76464;BME280;65301;46.666;20.110;2022-12-29T03:21:26;101557.31;;;0.36;78.33
76464;BME280;65301;46.666;20.110;2022-12-29T03:24:56;101548.59;;;0.24;78.47
76464;BME280;65301;46.666;20.110;2022-12-29T03:28:06;101557.50;;;0.34;78.56
76464;BME280;65301;46.666;20.110;2022-12-29T03:31:10;101553.53;;;0.32;78.44
76464;BME280;65301;46.666;20.110;2022-12-29T03:34:13;101549.75;;;0.28;78.12
76464;BME280;65301;46.666;20.110;2022-12-29T03:37:23;101564.97;;;0.24;78.38
76464;BME280;65301;46.666;20.110;2022-12-29T03:40:27;101553.81;;;0.24;78.14
76464;BME280;65301;46.666;20.110;2022-12-29T03:43:31;101561.16;;;0.27;78.87
76464;BME280;65301;46.666;20.110;2022-12-29T03:46:33;101566.41;;;0.20;79.20
76464;BME280;65301;46.666;20.110;2022-12-29T03:49:35;101535.34;;;0.07;78.97
76464;BME280;65301;46.666;20.110;2022-12-29T03:52:37;101551.41;;;0.22;79.17
76464;BME280;65301;46.666;20.110;2022-12-29T03:55:38;101538.63;;;0.21;79.30
76464;BME280;65301;46.666;20.110;2022-12-29T03:58:40;101560.78;;;0.23;79.13
76464;BME280;65301;46.666;20.110;2022-12-29T04:01:42;101559.78;;;0.24;78.90
76464;BME280;65301;46.666;20.110;2022-12-29T04:04:44;101554.09;;;0.34;78.62
76464;BME280;65301;46.666;20.110;2022-12-29T04:07:46;101549.69;;;0.34;77.63
76464;BME280;65301;46.666;20.110;2022-12-29T04:10:48;101555.19;;;0.26;77.87
76464;BME280;65301;46.666;20.110;2022-12-29T04:13:51;101552.53;;;0.33;78.39
76464;BME280;65301;46.666;20.110;2022-12-29T04:16:52;101552.44;;;0.21;78.70
76464;BME280;65301;46.666;20.110;2022-12-29T04:19:54;101546.44;;;0.21;78.99
76464;BME280;65301;46.666;20.110;2022-12-29T04:23:17;101537.25;;;0.18;79.06
76464;BME280;65301;46.666;20.110;2022-12-29T04:26:19;101545.63;;;0.20;79.31
76464;BME280;65301;46.666;20.110;2022-12-29T04:29:20;101537.84;;;0.20;80.11
76464;BME280;65301;46.666;20.110;2022-12-29T04:32:22;101536.63;;;0.23;79.30
76464;BME280;65301;46.666;20.110;2022-12-29T04:35:24;101531.06;;;0.19;80.08
76464;BME280;65301;46.666;20.110;2022-12-29T04:38:25;101544.72;;;0.33;79.71
76464;BME280;65301;46.666;20.110;2022-12-29T04:41:27;101541.41;;;0.26;79.85
76464;BME280;65301;46.666;20.110;2022-12-29T04:44:29;101545.16;;;0.30;79.45
76464;BME280;65301;46.666;20.110;2022-12-29T04:47:31;101542.88;;;0.40;79.82
76464;BME280;65301;46.666;20.110;2022-12-29T04:50:32;101542.63;;;0.48;79.21
76464;BME280;65301;46.666;20.110;2022-12-29T04:53:35;101540.59;;;0.50;78.62
76464;BME280;65301;46.666;20.110;2022-12-29T04:56:36;101541.25;;;0.39;79.58
76464;BME280;65301;46.666;20.110;2022-12-29T04:59:38;101546.91;;;0.36;79.36
76464;BME280;65301;46.666;20.110;2022-12-29T05:02:40;101546.47;;;0.39;79.04
76464;BME280;65301;46.666;20.110;2022-12-29T05:05:42;101539.13;;;0.36;78.93
76464;BME280;65301;46.666;20.110;2022-12-29T05:08:43;101541.59;;;0.24;79.28
76464;BME280;65301;46.666;20.110;2022-12-29T05:11:45;101542.44;;;0.18;79.89
76464;BME280;65301;46.666;20.110;2022-12-29T05:14:47;101547.97;;;0.28;79.63
76464;BME280;65301;46.666;20.110;2022-12-29T05:17:49;101546.44;;;0.21;79.74
76464;BME280;65301;46.666;20.110;2022-12-29T05:20:50;101542.66;;;0.17;79.75
76464;BME280;65301;46.666;20.110;2022-12-29T05:23:52;101544.81;;;0.20;79.84
76464;BME280;65301;46.666;20.110;2022-12-29T05:26:54;101548.06;;;0.15;80.38
76464;BME280;65301;46.666;20.110;2022-12-29T05:29:56;101548.81;;;0.22;79.77
76464;BME280;65301;46.666;20.110;2022-12-29T05:32:57;101549.25;;;0.19;79.98
76464;BME280;65301;46.666;20.110;2022-12-29T05:36:07;101554.47;;;0.13;80.21
76464;BME280;65301;46.666;20.110;2022-12-29T05:39:09;101546.03;;;0.17;79.75
76464;BME280;65301;46.666;20.110;2022-12-29T05:42:11;101546.91;;;0.11;80.01
76464;BME280;65301;46.666;20.110;2022-12-29T05:45:12;101552.50;;;0.08;80.16
76464;BME280;65301;46.666;20.110;2022-12-29T05:48:15;101537.56;;;0.04;80.20
76464;BME280;65301;46.666;20.110;2022-12-29T05:51:16;101540.38;;;0.02;80.85
76464;BME280;65301;46.666;20.110;2022-12-29T05:54:18;101537.97;;;0.00;80.42
76464;BME280;65301;46.666;20.110;2022-12-29T05:57:20;101534.16;;;0.03;80.32
76464;BME280;65301;46.666;20.110;2022-12-29T06:00:22;101538.94;;;0.06;80.75
76464;BME280;65301;46.666;20.110;2022-12-29T06:03:24;101538.41;;;-0.03;80.74
76464;BME280;65301;46.666;20.110;2022-12-29T06:06:26;101536.13;;;0.08;80.38
76464;BME280;65301;46.666;20.110;2022-12-29T06:09:27;101530.75;;;0.03;81.05
76464;BME280;65301;46.666;20.110;2022-12-29T06:12:29;101539.56;;;0.02;80.90
76464;BME280;65301;46.666;20.110;2022-12-29T06:15:34;101541.28;;;0.14;80.61
76464;BME280;65301;46.666;20.110;2022-12-29T06:18:36;101539.06;;;0.18;79.76
76464;BME280;65301;46.666;20.110;2022-12-29T06:21:38;101532.28;;;0.17;79.96
76464;BME280;65301;46.666;20.110;2022-12-29T06:24:39;101523.28;;;0.19;79.41
76464;BME280;65301;46.666;20.110;2022-12-29T06:27:42;101523.31;;;0.13;80.15
76464;BME280;65301;46.666;20.110;2022-12-29T06:30:44;101529.19;;;0.02;80.32
76464;BME280;65301;46.666;20.110;2022-12-29T06:33:46;101524.31;;;-0.13;80.21
76464;BME280;65301;46.666;20.110;2022-12-29T06:36:50;101539.47;;;-0.10;80.51
76464;BME280;65301;46.666;20.110;2022-12-29T06:39:52;101532.66;;;-0.11;81.05
76464;BME280;65301;46.666;20.110;2022-12-29T06:42:54;101530.00;;;-0.05;80.43
76464;BME280;65301;46.666;20.110;2022-12-29T06:45:56;101536.97;;;0.02;80.95
76464;BME280;65301;46.666;20.110;2022-12-29T06:48:57;101545.94;;;0.06;80.24
76464;BME280;65301;46.666;20.110;2022-12-29T06:51:59;101551.00;;;-0.06;81.32
76464;BME280;65301;46.666;20.110;2022-12-29T06:55:02;101536.13;;;0.08;81.19
76464;BME280;65301;46.666;20.110;2022-12-29T06:58:04;101539.78;;;0.25;81.17
76464;BME280;65301;46.666;20.110;2022-12-29T07:01:05;101543.09;;;0.38;80.26
76464;BME280;65301;46.666;20.110;2022-12-29T07:04:08;101542.06;;;0.39;79.80
76464;BME280;65301;46.666;20.110;2022-12-29T07:07:09;101540.38;;;0.51;79.65
76464;BME280;65301;46.666;20.110;2022-12-29T07:10:11;101552.38;;;0.52;79.84
76464;BME280;65301;46.666;20.110;2022-12-29T07:13:13;101554.97;;;0.52;79.89
76464;BME280;65301;46.666;20.110;2022-12-29T07:16:15;101543.34;;;0.30;80.84
76464;BME280;65301;46.666;20.110;2022-12-29T07:19:17;101544.81;;;0.44;80.60
76464;BME280;65301;46.666;20.110;2022-12-29T07:22:20;101543.69;;;0.58;80.27
76464;BME280;65301;46.666;20.110;2022-12-29T07:25:22;101537.34;;;0.54;80.25
76464;BME280;65301;46.666;20.110;2022-12-29T07:28:23;101539.44;;;0.64;80.78
76464;BME280;65301;46.666;20.110;2022-12-29T07:31:25;101540.06;;;0.84;80.73
76464;BME280;65301;46.666;20.110;2022-12-29T07:34:27;101528.78;;;0.90;80.42
76464;BME280;65301;46.666;20.110;2022-12-29T07:37:28;101533.69;;;1.16;80.04
76464;BME280;65301;46.666;20.110;2022-12-29T07:40:30;101526.72;;;1.47;78.87
76464;BME280;65301;46.666;20.110;2022-12-29T07:43:32;101531.88;;;1.76;77.82
76464;BME280;65301;46.666;20.110;2022-12-29T07:46:34;101532.97;;;1.98;77.39
76464;BME280;65301;46.666;20.110;2022-12-29T07:49:55;101536.88;;;2.19;76.88
76464;BME280;65301;46.666;20.110;2022-12-29T07:52:57;101531.41;;;2.44;76.32
76464;BME280;65301;46.666;20.110;2022-12-29T07:55:59;101525.66;;;2.42;75.90
76464;BME280;65301;46.666;20.110;2022-12-29T07:59:01;101532.91;;;2.75;74.89
76464;BME280;65301;46.666;20.110;2022-12-29T08:02:03;101540.13;;;2.96;74.34
76464;BME280;65301;46.666;20.110;2022-12-29T08:05:05;101533.66;;;3.38;72.81
76464;BME280;65301;46.666;20.110;2022-12-29T08:08:07;101533.41;;;3.68;72.80
76464;BME280;65301;46.666;20.110;2022-12-29T08:11:09;101526.13;;;3.70;71.69
76464;BME280;65301;46.666;20.110;2022-12-29T08:14:10;101510.00;;;3.89;71.29
76464;BME280;65301;46.666;20.110;2022-12-29T08:17:12;101515.34;;;4.66;69.37
76464;BME280;65301;46.666;20.110;2022-12-29T08:20:14;101513.94;;;4.80;67.37
76464;BME280;65301;46.666;20.110;2022-12-29T08:23:16;101516.41;;;5.08;67.53
76464;BME280;65301;46.666;20.110;2022-12-29T08:26:17;101522.06;;;5.49;66.48
76464;BME280;65301;46.666;20.110;2022-12-29T08:29:20;101519.00;;;5.30;66.47
76464;BME280;65301;46.666;20.110;2022-12-29T08:32:22;101513.72;;;5.52;65.84
76464;BME280;65301;46.666;20.110;2022-12-29T08:35:24;101504.41;;;5.12;67.42
76464;BME280;65301;46.666;20.110;2022-12-29T08:38:27;101502.56;;;5.13;68.60
76464;BME280;65301;46.666;20.110;2022-12-29T08:41:29;101510.56;;;5.23;69.41
76464;BME280;65301;46.666;20.110;2022-12-29T08:44:31;101502.97;;;5.80;66.64
76464;BME280;65301;46.666;20.110;2022-12-29T08:47:33;101511.09;;;6.10;66.60
76464;BME280;65301;46.666;20.110;2022-12-29T08:50:35;101508.16;;;5.75;66.92
76464;BME280;65301;46.666;20.110;2022-12-29T08:53:36;101520.47;;;5.74;67.37
76464;BME280;65301;46.666;20.110;2022-12-29T08:56:38;101518.34;;;5.93;67.79
76464;BME280;65301;46.666;20.110;2022-12-29T08:59:40;101513.28;;;5.86;67.48
76464;BME280;65301;46.666;20.110;2022-12-29T09:02:42;101510.75;;;5.96;68.09
76464;BME280;65301;46.666;20.110;2022-12-29T09:05:50;101514.47;;;6.05;67.95
76464;BME280;65301;46.666;20.110;2022-12-29T09:08:53;101520.75;;;5.73;68.56
76464;BME280;65301;46.666;20.110;2022-12-29T09:11:55;101521.41;;;5.85;69.27
76464;BME280;65301;46.666;20.110;2022-12-29T09:14:57;101516.69;;;5.60;70.14
76464;BME280;65301;46.666;20.110;2022-12-29T09:17:59;101505.13;;;5.56;70.06
76464;BME280;65301;46.666;20.110;2022-12-29T09:21:02;101497.38;;;5.39;70.94
76464;BME280;65301;46.666;20.110;2022-12-29T09:24:04;101492.69;;;5.20;71.92
76464;BME280;65301;46.666;20.110;2022-12-29T09:27:06;101496.63;;;5.44;71.65
76464;BME280;65301;46.666;20.110;2022-12-29T09:30:10;101501.22;;;5.59;72.03
76464;BME280;65301;46.666;20.110;2022-12-29T09:33:13;101492.59;;;5.63;71.04
76464;BME280;65301;46.666;20.110;2022-12-29T09:36:14;101481.06;;;5.59;71.18
76464;BME280;65301;46.666;20.110;2022-12-29T09:39:16;101482.59;;;6.60;68.92
76464;BME280;65301;46.666;20.110;2022-12-29T09:45:38;101477.81;;;9.14;59.87
76464;BME280;65301;46.666;20.110;2022-12-29T09:48:47;101478.28;;;8.73;58.84
76464;BME280;65301;46.666;20.110;2022-12-29T09:51:55;101475.50;;;9.47;58.58
76464;BME280;65301;46.666;20.110;2022-12-29T09:58:32;101459.16;;;9.83;55.77
76464;BME280;65301;46.666;20.110;2022-12-29T10:01:53;101455.44;;;9.07;58.05
76464;BME280;65301;46.666;20.110;2022-12-29T10:04:58;101454.25;;;9.67;57.46
76464;BME280;65301;46.666;20.110;2022-12-29T10:20:55;101449.88;;;11.42;51.78
76464;BME280;65301;46.666;20.110;2022-12-29T10:23:59;101446.84;;;12.13;49.88
76464;BME280;65301;46.666;20.110;2022-12-29T10:27:03;101446.03;;;11.34;51.63
76464;BME280;65301;46.666;20.110;2022-12-29T10:30:12;101439.19;;;11.97;49.55
76464;BME280;65301;46.666;20.110;2022-12-29T10:33:22;101428.66;;;12.88;47.60
76464;BME280;65301;46.666;20.110;2022-12-29T10:36:42;101438.00;;;13.57;45.93
76464;BME280;65301;46.666;20.110;2022-12-29T10:39:54;101436.91;;;11.91;50.36
76464;BME280;65301;46.666;20.110;2022-12-29T10:42:57;101442.09;;;12.55;49.33
76464;BME280;65301;46.666;20.110;2022-12-29T10:46:04;101434.72;;;12.12;49.93
76464;BME280;65301;46.666;20.110;2022-12-29T10:49:14;101424.69;;;10.27;55.84
76464;BME280;65301;46.666;20.110;2022-12-29T10:52:23;101423.75;;;9.22;59.40
76464;BME280;65301;46.666;20.110;2022-12-29T10:55:35;101418.97;;;8.80;61.45
76464;BME280;65301;46.666;20.110;2022-12-29T10:58:39;101400.22;;;8.18;63.74
76464;BME280;65301;46.666;20.110;2022-12-29T11:08:33;101395.78;;;8.08;64.72
76464;BME280;65301;46.666;20.110;2022-12-29T11:11:37;101395.28;;;7.96;66.23
76464;BME280;65301;46.666;20.110;2022-12-29T11:14:38;101386.88;;;7.84;66.61
76464;BME280;65301;46.666;20.110;2022-12-29T11:17:50;101385.84;;;7.70;67.53
76464;BME280;65301;46.666;20.110;2022-12-29T11:20:55;101385.06;;;7.69;67.69
76464;BME280;65301;46.666;20.110;2022-12-29T11:24:03;101375.63;;;7.53;68.17
76464;BME280;65301;46.666;20.110;2022-12-29T11:30:25;101376.94;;;7.46;68.85
76464;BME280;65301;46.666;20.110;2022-12-29T11:33:28;101371.16;;;7.38;69.75
76464;BME280;65301;46.666;20.110;2022-12-29T11:36:31;101365.88;;;7.38;70.46
76464;BME280;65301;46.666;20.110;2022-12-29T11:43:33;101339.34;;;7.55;69.55
76464;BME280;65301;46.666;20.110;2022-12-29T11:46:37;101321.72;;;7.61;69.99
76464;BME280;65301;46.666;20.110;2022-12-29T11:49:49;101335.09;;;7.64;69.77
76464;BME280;65301;46.666;20.110;2022-12-29T11:52:58;101335.38;;;7.53;69.75
76464;BME280;65301;46.666;20.110;2022-12-29T11:56:03;101344.34;;;7.47;70.07
76464;BME280;65301;46.666;20.110;2022-12-29T12:05:56;101339.88;;;7.32;71.89
76464;BME280;65301;46.666;20.110;2022-12-29T12:09:10;101339.59;;;7.28;72.26
76464;BME280;65301;46.666;20.110;2022-12-29T12:12:32;101336.97;;;7.23;72.64
76464;BME280;65301;46.666;20.110;2022-12-29T12:15:44;101318.06;;;7.16;73.38
76464;BME280;65301;46.666;20.110;2022-12-29T12:18:57;101314.91;;;7.14;72.82
76464;BME280;65301;46.666;20.110;2022-12-29T12:22:14;101309.41;;;7.11;73.28
76464;BME280;65301;46.666;20.110;2022-12-29T12:25:39;101312.28;;;7.24;73.25
76464;BME280;65301;46.666;20.110;2022-12-29T12:29:04;101302.31;;;7.21;73.04
76464;BME280;65301;46.666;20.110;2022-12-29T12:35:44;101301.25;;;7.17;73.73
76464;BME280;65301;46.666;20.110;2022-12-29T12:39:02;101300.22;;;7.13;73.73
76464;BME280;65301;46.666;20.110;2022-12-29T12:45:49;101284.72;;;7.07;74.88
76464;BME280;65301;46.666;20.110;2022-12-29T12:52:20;101298.63;;;7.12;75.17
76464;BME280;65301;46.666;20.110;2022-12-29T12:59:20;101295.50;;;7.20;74.69
76464;BME280;65301;46.666;20.110;2022-12-29T13:12:53;101307.84;;;7.25;75.25
76464;BME280;65301;46.666;20.110;2022-12-29T13:19:41;101304.41;;;7.24;75.44
76464;BME280;65301;46.666;20.110;2022-12-29T13:22:56;101308.34;;;7.32;75.11
76464;BME280;65301;46.666;20.110;2022-12-29T13:26:24;101313.84;;;7.35;75.32
76464;BME280;65301;46.666;20.110;2022-12-29T13:29:50;101299.16;;;7.34;75.50
76464;BME280;65301;46.666;20.110;2022-12-29T13:39:26;101294.19;;;7.23;76.06
76464;BME280;65301;46.666;20.110;2022-12-29T13:42:31;101289.44;;;7.25;76.35
76464;BME280;65301;46.666;20.110;2022-12-29T13:45:34;101285.75;;;7.26;76.59
76464;BME280;65301;46.666;20.110;2022-12-29T13:48:46;101297.84;;;7.27;76.66
76464;BME280;65301;46.666;20.110;2022-12-29T13:51:57;101284.72;;;7.27;77.36
76464;BME280;65301;46.666;20.110;2022-12-29T13:58:34;101279.72;;;7.15;78.09
76464;BME280;65301;46.666;20.110;2022-12-29T14:05:32;101283.66;;;7.28;78.39
76464;BME280;65301;46.666;20.110;2022-12-29T14:08:34;101276.81;;;7.27;78.40
76464;BME280;65301;46.666;20.110;2022-12-29T14:11:40;101290.47;;;7.29;79.00
76464;BME280;65301;46.666;20.110;2022-12-29T14:14:42;101286.53;;;7.26;79.26
76464;BME280;65301;46.666;20.110;2022-12-29T14:17:44;101279.19;;;7.23;79.00
76464;BME280;65301;46.666;20.110;2022-12-29T14:21:19;101272.59;;;7.31;79.03
76464;BME280;65301;46.666;20.110;2022-12-29T14:27:44;101266.59;;;7.25;79.57
76464;BME280;65301;46.666;20.110;2022-12-29T14:30:58;101271.06;;;7.25;79.61
76464;BME280;65301;46.666;20.110;2022-12-29T14:37:26;101271.06;;;7.30;79.65
76464;BME280;65301;46.666;20.110;2022-12-29T14:40:28;101272.88;;;7.34;79.24
76464;BME280;65301;46.666;20.110;2022-12-29T14:43:30;101278.38;;;7.38;79.88
76464;BME280;65301;46.666;20.110;2022-12-29T14:49:56;101272.59;;;7.36;79.85
76464;BME280;65301;46.666;20.110;2022-12-29T14:53:05;101267.09;;;7.37;79.63
76464;BME280;65301;46.666;20.110;2022-12-29T14:56:10;101276.28;;;7.40;79.61
76464;BME280;65301;46.666;20.110;2022-12-29T14:59:13;101277.63;;;7.37;79.72
76464;BME280;65301;46.666;20.110;2022-12-29T15:02:19;101267.88;;;7.38;79.74
76464;BME280;65301;46.666;20.110;2022-12-29T15:05:53;101272.09;;;7.34;79.72
76464;BME280;65301;46.666;20.110;2022-12-29T15:09:03;101271.56;;;7.32;80.36
76464;BME280;65301;46.666;20.110;2022-12-29T15:12:39;101261.06;;;7.22;80.39
76464;BME280;65301;46.666;20.110;2022-12-29T15:15:43;101262.66;;;7.23;80.65
76464;BME280;65301;46.666;20.110;2022-12-29T15:18:44;101260.28;;;7.21;80.87
76464;BME280;65301;46.666;20.110;2022-12-29T15:21:47;101262.66;;;7.18;81.27
76464;BME280;65301;46.666;20.110;2022-12-29T15:24:53;101260.03;;;7.13;81.52
76464;BME280;65301;46.666;20.110;2022-12-29T15:28:04;101255.81;;;7.12;81.22
76464;BME280;65301;46.666;20.110;2022-12-29T15:31:12;101259.50;;;7.11;81.28
76464;BME280;65301;46.666;20.110;2022-12-29T15:34:14;101262.66;;;7.08;81.26
76464;BME280;65301;46.666;20.110;2022-12-29T15:37:25;101263.69;;;7.12;81.23
76464;BME280;65301;46.666;20.110;2022-12-29T15:40:32;101259.22;;;6.97;81.87
76464;BME280;65301;46.666;20.110;2022-12-29T15:46:51;101255.06;;;7.01;81.64
76464;BME280;65301;46.666;20.110;2022-12-29T15:50:05;101273.69;;;7.00;82.10
76464;BME280;65301;46.666;20.110;2022-12-29T15:53:12;101259.00;;;6.99;81.48
76464;BME280;65301;46.666;20.110;2022-12-29T15:56:18;101265.81;;;7.10;81.26
76464;BME280;65301;46.666;20.110;2022-12-29T15:59:31;101260.53;;;7.15;81.58
76464;BME280;65301;46.666;20.110;2022-12-29T16:02:34;101249.25;;;7.14;81.19
76464;BME280;65301;46.666;20.110;2022-12-29T16:05:39;101264.75;;;7.11;81.70
76464;BME280;65301;46.666;20.110;2022-12-29T16:08:41;101258.44;;;7.22;81.95
76464;BME280;65301;46.666;20.110;2022-12-29T16:11:46;101262.09;;;7.21;82.00
76464;BME280;65301;46.666;20.110;2022-12-29T16:14:56;101268.16;;;7.26;81.96
76464;BME280;65301;46.666;20.110;2022-12-29T16:17:59;101271.28;;;7.28;81.94
76464;BME280;65301;46.666;20.110;2022-12-29T16:21:03;101267.09;;;7.27;81.92
76464;BME280;65301;46.666;20.110;2022-12-29T16:24:11;101268.44;;;7.25;82.10
76464;BME280;65301;46.666;20.110;2022-12-29T16:27:24;101274.72;;;7.29;82.12
76464;BME280;65301;46.666;20.110;2022-12-29T16:30:32;101280.50;;;7.31;81.90
76464;BME280;65301;46.666;20.110;2022-12-29T16:33:53;101276.81;;;7.32;82.69
76464;BME280;65301;46.666;20.110;2022-12-29T16:37:05;101282.88;;;7.37;82.20
76464;BME280;65301;46.666;20.110;2022-12-29T16:40:29;101284.69;;;7.37;82.67
76464;BME280;65301;46.666;20.110;2022-12-29T16:43:35;101282.84;;;7.43;82.12
76464;BME280;65301;46.666;20.110;2022-12-29T16:47:04;101281.81;;;7.33;82.31
76464;BME280;65301;46.666;20.110;2022-12-29T16:50:13;101277.63;;;7.37;82.63
76464;BME280;65301;46.666;20.110;2022-12-29T16:53:37;101279.44;;;7.32;82.88
76464;BME280;65301;46.666;20.110;2022-12-29T16:56:43;101275.00;;;7.32;82.69
76464;BME280;65301;46.666;20.110;2022-12-29T16:59:46;101273.91;;;7.28;82.65
76464;BME280;65301;46.666;20.110;2022-12-29T17:02:54;101276.81;;;7.32;83.81
76464;BME280;65301;46.666;20.110;2022-12-29T17:05:57;101283.09;;;7.41;82.78
76464;BME280;65301;46.666;20.110;2022-12-29T17:08:59;101281.56;;;7.40;82.62
76464;BME280;65301;46.666;20.110;2022-12-29T17:12:01;101269.16;;;7.51;82.64
76464;BME280;65301;46.666;20.110;2022-12-29T17:15:18;101274.13;;;7.57;82.38
76464;BME280;65301;46.666;20.110;2022-12-29T17:18:22;101268.63;;;7.54;82.83
76464;BME280;65301;46.666;20.110;2022-12-29T17:21:24;101284.63;;;7.62;82.83
76464;BME280;65301;46.666;20.110;2022-12-29T17:24:26;101281.50;;;7.55;82.56
76464;BME280;65301;46.666;20.110;2022-12-29T17:27:31;101282.03;;;7.57;82.42
76464;BME280;65301;46.666;20.110;2022-12-29T17:30:35;101281.75;;;7.64;82.06
76464;BME280;65301;46.666;20.110;2022-12-29T17:33:37;101278.88;;;7.55;83.05
76464;BME280;65301;46.666;20.110;2022-12-29T17:36:42;101276.75;;;7.57;82.26
76464;BME280;65301;46.666;20.110;2022-12-29T17:39:44;101286.50;;;7.57;83.10
76464;BME280;65301;46.666;20.110;2022-12-29T17:42:51;101285.19;;;7.54;83.05
76464;BME280;65301;46.666;20.110;2022-12-29T17:45:55;101292.53;;;7.52;83.22
76464;BME280;65301;46.666;20.110;2022-12-29T17:48:58;101290.97;;;7.51;83.34
76464;BME280;65301;46.666;20.110;2022-12-29T17:52:00;101295.44;;;7.51;83.03
76464;BME280;65301;46.666;20.110;2022-12-29T17:55:01;101279.97;;;7.39;83.11
76464;BME280;65301;46.666;20.110;2022-12-29T17:58:17;101279.69;;;7.35;82.80
76464;BME280;65301;46.666;20.110;2022-12-29T18:01:19;101282.06;;;7.27;83.08
76464;BME280;65301;46.666;20.110;2022-12-29T18:04:22;101289.44;;;7.15;83.93
76464;BME280;65301;46.666;20.110;2022-12-29T18:07:28;101297.31;;;7.15;84.04
76464;BME280;65301;46.666;20.110;2022-12-29T18:10:37;101302.84;;;7.13;84.38
76464;BME280;65301;46.666;20.110;2022-12-29T18:13:40;101293.38;;;7.17;84.24
76464;BME280;65301;46.666;20.110;2022-12-29T18:16:47;101300.47;;;7.12;83.35